Terminal Aerodrome Forecast
Issued by NWS Raleigh/Durham, NC

Home | Current Version | Previous Version | Text Only | Print | Product List | Glossary On
Versions: 1 2 3 4 5 6 7 8 9 10 11 12 13 14 15 16 17 18 19 20 21 22 23 24 25 26 27 28 29 30 31 32 33 34 35 36 37 38 39 40 41 42 43 44 45 46 47 48 49 50
000
FTUS42 KRAH 020907 AAA
TAFRDU
TAF AMD
KRDU 020907Z 0209/0306 00000KT P6SM FEW100 SCT250
      TEMPO 0210/0212 6SM BR
     FM021700 25004KT P6SM BKN070
     FM022300 27003KT P6SM VCSH BKN070
     FM030300 35005KT P6SM SCT070=

USA.gov is the U.S. government's official web portal to all federal, state and local government web resources and services.